IBE493 LEMD-LEXJ
Flight info
| Callsign | IBE493 |
|---|---|
| Flight time | 0h 33m |
| Altitude | 26000 |
| Route | SIE N865 UNGAS/N0412F240 Y753 EMANU |
| Aircraft | A319/M-SDE3FGHIRWY/LB1 |
Departure
| Time | 2026-05-08 14:17 |
|---|---|
| Airport | Adolfo Suárez Madrid–Barajas Airport (LEMD) |
Arrival
| Time | 2026-05-08 14:51 |
|---|---|
| Airport | Seve Ballesteros-Santander Airport (LEXJ) |
| Time | Latitude | Longitude | Altitude | Speed | Heading |
|---|---|---|---|---|---|
| 2026-05-08 13:39 | 40.49043 | -3.58967 | 2022 ft | 0 kts | 270° |
| 2026-05-08 14:10 | 40.49043 | -3.58948 | 2027 ft | 4 kts | 270° |
| 2026-05-08 14:10 | 40.49043 | -3.58919 | 2030 ft | 3 kts | 271° |
| 2026-05-08 14:10 | 40.49037 | -3.58889 | 2034 ft | 4 kts | 321° |
| 2026-05-08 14:10 | 40.49015 | -3.58880 | 2028 ft | 4 kts | 360° |
| 2026-05-08 14:11 | 40.49007 | -3.58879 | 2032 ft | 0 kts | 359° |
| 2026-05-08 14:13 | 40.49011 | -3.58880 | 2033 ft | 2 kts | 359° |
| 2026-05-08 14:13 | 40.49043 | -3.58880 | 2025 ft | 8 kts | 360° |
| 2026-05-08 14:13 | 40.49114 | -3.58880 | 2022 ft | 11 kts | 359° |
| 2026-05-08 14:13 | 40.49194 | -3.58881 | 2022 ft | 12 kts | 359° |
| 2026-05-08 14:14 | 40.49240 | -3.58817 | 2022 ft | 11 kts | 89° |
| 2026-05-08 14:14 | 40.49240 | -3.58712 | 2025 ft | 12 kts | 90° |
| 2026-05-08 14:14 | 40.49241 | -3.58604 | 2027 ft | 12 kts | 89° |
| 2026-05-08 14:14 | 40.49241 | -3.58479 | 2015 ft | 16 kts | 90° |
| 2026-05-08 14:15 | 40.49241 | -3.58336 | 2011 ft | 17 kts | 90° |
| 2026-05-08 14:15 | 40.49242 | -3.58182 | 2006 ft | 18 kts | 89° |
| 2026-05-08 14:15 | 40.49243 | -3.58019 | 2002 ft | 15 kts | 90° |
| 2026-05-08 14:15 | 40.49243 | -3.57902 | 1998 ft | 15 kts | 90° |
| 2026-05-08 14:16 | 40.49244 | -3.57749 | 1992 ft | 19 kts | 89° |
| 2026-05-08 14:16 | 40.49251 | -3.57607 | 1987 ft | 14 kts | 73° |
| 2026-05-08 14:16 | 40.49308 | -3.57495 | 1986 ft | 16 kts | 52° |
| 2026-05-08 14:16 | 40.49414 | -3.57452 | 1983 ft | 20 kts | 360° |
| 2026-05-08 14:17 | 40.49801 | -3.57455 | 1985 ft | 93 kts | 360° |
| 2026-05-08 14:17 | 40.50661 | -3.57461 | 1995 ft | 153 kts | 359° |
| 2026-05-08 14:17 | 40.51846 | -3.57479 | 2306 ft | 175 kts | 358° |
| 2026-05-08 14:17 | 40.53064 | -3.57489 | 3019 ft | 175 kts | 360° |
| 2026-05-08 14:18 | 40.54285 | -3.57490 | 3713 ft | 177 kts | 359° |
| 2026-05-08 14:18 | 40.55524 | -3.57490 | 4330 ft | 179 kts | 359° |
| 2026-05-08 14:18 | 40.56774 | -3.57488 | 4968 ft | 180 kts | 359° |
| 2026-05-08 14:18 | 40.58069 | -3.57494 | 5395 ft | 195 kts | 357° |
| 2026-05-08 14:19 | 40.59485 | -3.57516 | 5764 ft | 213 kts | 360° |
| 2026-05-08 14:19 | 40.60982 | -3.57003 | 6120 ft | 234 kts | 25° |
| 2026-05-08 14:19 | 40.62500 | -3.56048 | 6531 ft | 251 kts | 25° |
| 2026-05-08 14:19 | 40.64179 | -3.55467 | 7267 ft | 253 kts | 355° |
| 2026-05-08 14:20 | 40.65922 | -3.55795 | 8079 ft | 255 kts | 349° |
| 2026-05-08 14:20 | 40.67709 | -3.55962 | 8876 ft | 261 kts | 356° |
| 2026-05-08 14:20 | 40.69543 | -3.55965 | 9697 ft | 266 kts | 358° |
| 2026-05-08 14:20 | 40.71404 | -3.55914 | 10498 ft | 269 kts | 358° |
| 2026-05-08 14:21 | 40.72672 | -3.55877 | 11064 ft | 271 kts | 358° |
| 2026-05-08 14:21 | 40.74569 | -3.55864 | 11806 ft | 279 kts | 355° |
| 2026-05-08 14:21 | 40.76588 | -3.56001 | 12207 ft | 300 kts | 352° |
| 2026-05-08 14:21 | 40.78677 | -3.56232 | 12875 ft | 309 kts | 351° |
| 2026-05-08 14:22 | 40.80829 | -3.56502 | 13671 ft | 313 kts | 351° |
| 2026-05-08 14:22 | 40.83004 | -3.56780 | 14432 ft | 315 kts | 350° |
| 2026-05-08 14:22 | 40.85200 | -3.57057 | 15199 ft | 318 kts | 350° |
| 2026-05-08 14:22 | 40.87419 | -3.57326 | 15927 ft | 323 kts | 350° |
| 2026-05-08 14:23 | 40.89675 | -3.57590 | 16648 ft | 327 kts | 349° |
| 2026-05-08 14:23 | 40.91974 | -3.57857 | 17087 ft | 342 kts | 349° |
| 2026-05-08 14:23 | 40.94421 | -3.58146 | 17230 ft | 364 kts | 349° |
| 2026-05-08 14:23 | 40.97023 | -3.58445 | 17362 ft | 385 kts | 350° |
| 2026-05-08 14:24 | 40.99747 | -3.58753 | 17717 ft | 398 kts | 350° |
| 2026-05-08 14:24 | 41.02521 | -3.59060 | 18314 ft | 403 kts | 350° |
| 2026-05-08 14:24 | 41.05327 | -3.59370 | 18885 ft | 406 kts | 349° |
| 2026-05-08 14:24 | 41.08160 | -3.59685 | 19493 ft | 410 kts | 350° |
| 2026-05-08 14:25 | 41.11019 | -3.59981 | 20077 ft | 414 kts | 350° |
| 2026-05-08 14:25 | 41.13910 | -3.60249 | 20677 ft | 418 kts | 351° |
| 2026-05-08 14:25 | 41.16826 | -3.60506 | 21267 ft | 421 kts | 351° |
| 2026-05-08 14:25 | 41.19761 | -3.60764 | 21826 ft | 424 kts | 350° |
| 2026-05-08 14:26 | 41.22719 | -3.61033 | 22363 ft | 427 kts | 350° |
| 2026-05-08 14:26 | 41.25696 | -3.61314 | 22909 ft | 431 kts | 349° |
| 2026-05-08 14:26 | 41.28696 | -3.61603 | 23440 ft | 434 kts | 349° |
| 2026-05-08 14:26 | 41.31715 | -3.61898 | 23914 ft | 436 kts | 349° |
| 2026-05-08 14:27 | 41.34746 | -3.62194 | 24369 ft | 438 kts | 349° |
| 2026-05-08 14:27 | 41.37797 | -3.62495 | 24795 ft | 440 kts | 349° |
| 2026-05-08 14:27 | 41.40821 | -3.62794 | 25213 ft | 443 kts | 349° |
| 2026-05-08 14:27 | 41.43904 | -3.63094 | 25629 ft | 445 kts | 349° |
| 2026-05-08 14:28 | 41.47005 | -3.63392 | 26043 ft | 448 kts | 349° |
| 2026-05-08 14:28 | 41.50125 | -3.63691 | 26452 ft | 451 kts | 349° |
| 2026-05-08 14:28 | 41.53265 | -3.63992 | 26875 ft | 453 kts | 350° |
| 2026-05-08 14:28 | 41.56419 | -3.64297 | 27279 ft | 456 kts | 349° |
| 2026-05-08 14:29 | 41.59594 | -3.64604 | 27678 ft | 459 kts | 349° |
| 2026-05-08 14:29 | 41.62781 | -3.64911 | 27880 ft | 459 kts | 349° |
| 2026-05-08 14:29 | 41.65964 | -3.65215 | 27914 ft | 457 kts | 349° |
| 2026-05-08 14:29 | 41.69129 | -3.65520 | 27910 ft | 456 kts | 349° |
| 2026-05-08 14:30 | 41.72290 | -3.65829 | 27931 ft | 455 kts | 350° |
| 2026-05-08 14:30 | 41.75457 | -3.66144 | 27912 ft | 456 kts | 350° |
| 2026-05-08 14:30 | 41.78618 | -3.66459 | 27910 ft | 456 kts | 350° |
| 2026-05-08 14:30 | 41.81786 | -3.66769 | 27909 ft | 456 kts | 350° |
| 2026-05-08 14:31 | 41.84956 | -3.67077 | 27910 ft | 456 kts | 350° |
| 2026-05-08 14:31 | 41.88123 | -3.67385 | 27910 ft | 456 kts | 350° |
| 2026-05-08 14:31 | 41.91245 | -3.67690 | 27909 ft | 456 kts | 350° |
| 2026-05-08 14:32 | 41.97577 | -3.68310 | 27916 ft | 456 kts | 352° |
| 2026-05-08 14:32 | 42.00750 | -3.68621 | 27909 ft | 456 kts | 352° |
| 2026-05-08 14:32 | 42.03913 | -3.68934 | 27901 ft | 456 kts | 352° |
| 2026-05-08 14:32 | 42.07083 | -3.69246 | 27897 ft | 456 kts | 352° |
| 2026-05-08 14:33 | 42.10250 | -3.69557 | 27895 ft | 457 kts | 352° |
| 2026-05-08 14:33 | 42.13421 | -3.69870 | 27896 ft | 457 kts | 352° |
| 2026-05-08 14:33 | 42.16591 | -3.70182 | 27899 ft | 457 kts | 353° |
| 2026-05-08 14:33 | 42.19766 | -3.70496 | 27926 ft | 457 kts | 353° |
| 2026-05-08 14:34 | 42.22942 | -3.70812 | 27923 ft | 458 kts | 353° |
| 2026-05-08 14:34 | 42.26121 | -3.71124 | 27772 ft | 459 kts | 353° |
| 2026-05-08 14:34 | 42.29309 | -3.71438 | 27364 ft | 457 kts | 353° |
| 2026-05-08 14:34 | 42.32476 | -3.71751 | 26617 ft | 455 kts | 353° |
| 2026-05-08 14:35 | 42.35620 | -3.72064 | 25993 ft | 451 kts | 355° |
| 2026-05-08 14:35 | 42.38733 | -3.72376 | 25348 ft | 447 kts | 355° |
| 2026-05-08 14:35 | 42.41831 | -3.72687 | 24710 ft | 444 kts | 355° |
| 2026-05-08 14:35 | 42.44904 | -3.72994 | 24077 ft | 441 kts | 356° |
| 2026-05-08 14:36 | 42.47955 | -3.73294 | 23442 ft | 439 kts | 356° |
| 2026-05-08 14:36 | 42.50987 | -3.73594 | 22777 ft | 435 kts | 356° |
| 2026-05-08 14:36 | 42.53989 | -3.73893 | 22217 ft | 430 kts | 356° |
| 2026-05-08 14:36 | 42.56966 | -3.74191 | 21659 ft | 426 kts | 356° |
| 2026-05-08 14:37 | 42.59867 | -3.74483 | 21151 ft | 422 kts | 356° |
| 2026-05-08 14:37 | 42.62793 | -3.74778 | 20627 ft | 419 kts | 356° |
| 2026-05-08 14:37 | 42.65689 | -3.75069 | 20136 ft | 416 kts | 356° |
| 2026-05-08 14:37 | 42.68564 | -3.75359 | 19650 ft | 413 kts | 355° |
| 2026-05-08 14:38 | 42.71417 | -3.75648 | 19171 ft | 410 kts | 355° |
| 2026-05-08 14:38 | 42.74252 | -3.75934 | 18694 ft | 407 kts | 355° |
| 2026-05-08 14:38 | 42.77064 | -3.76215 | 18195 ft | 404 kts | 355° |
| 2026-05-08 14:38 | 42.79862 | -3.76493 | 17663 ft | 401 kts | 355° |
| 2026-05-08 14:39 | 42.82640 | -3.76768 | 17165 ft | 398 kts | 355° |
| 2026-05-08 14:39 | 42.85386 | -3.77045 | 16665 ft | 394 kts | 355° |
| 2026-05-08 14:39 | 42.88108 | -3.77321 | 16158 ft | 391 kts | 355° |
| 2026-05-08 14:39 | 42.90812 | -3.77594 | 15659 ft | 390 kts | 355° |
| 2026-05-08 14:40 | 42.93540 | -3.77867 | 15389 ft | 395 kts | 355° |
| 2026-05-08 14:40 | 42.96277 | -3.78183 | 15144 ft | 395 kts | 353° |
| 2026-05-08 14:40 | 42.99009 | -3.78391 | 14928 ft | 393 kts | 2° |
| 2026-05-08 14:40 | 43.01699 | -3.77808 | 14884 ft | 392 kts | 17° |
| 2026-05-08 14:41 | 43.04171 | -3.76297 | 14903 ft | 389 kts | 34° |
| 2026-05-08 14:41 | 43.06205 | -3.73923 | 14696 ft | 381 kts | 51° |
| 2026-05-08 14:41 | 43.07628 | -3.70921 | 14185 ft | 373 kts | 69° |
| 2026-05-08 14:41 | 43.08618 | -3.67655 | 13642 ft | 371 kts | 70° |
| 2026-05-08 14:42 | 43.09723 | -3.64484 | 13242 ft | 365 kts | 65° |
| 2026-05-08 14:42 | 43.10956 | -3.61513 | 12833 ft | 352 kts | 61° |
| 2026-05-08 14:42 | 43.12276 | -3.58773 | 12445 ft | 338 kts | 58° |
| 2026-05-08 14:42 | 43.13658 | -3.56233 | 12046 ft | 327 kts | 54° |
| 2026-05-08 14:43 | 43.15094 | -3.53868 | 11509 ft | 321 kts | 52° |
| 2026-05-08 14:43 | 43.16600 | -3.51644 | 10939 ft | 316 kts | 48° |
| 2026-05-08 14:43 | 43.18176 | -3.49579 | 10421 ft | 311 kts | 44° |
| 2026-05-08 14:43 | 43.19788 | -3.47697 | 9878 ft | 309 kts | 41° |
| 2026-05-08 14:44 | 43.21508 | -3.45885 | 9127 ft | 313 kts | 38° |
| 2026-05-08 14:44 | 43.23301 | -3.44192 | 8471 ft | 313 kts | 34° |
| 2026-05-08 14:44 | 43.25143 | -3.42644 | 7841 ft | 309 kts | 30° |
| 2026-05-08 14:44 | 43.27018 | -3.41264 | 7311 ft | 303 kts | 27° |
| 2026-05-08 14:45 | 43.28959 | -3.40205 | 6805 ft | 298 kts | 7° |
| 2026-05-08 14:45 | 43.30956 | -3.40457 | 6225 ft | 285 kts | 333° |
| 2026-05-08 14:45 | 43.32454 | -3.42085 | 5587 ft | 272 kts | 297° |
| 2026-05-08 14:45 | 43.32982 | -3.44497 | 5094 ft | 264 kts | 267° |
| 2026-05-08 14:46 | 43.33118 | -3.46966 | 4936 ft | 256 kts | 281° |
| 2026-05-08 14:46 | 43.33795 | -3.49193 | 4755 ft | 251 kts | 289° |
| 2026-05-08 14:46 | 43.34465 | -3.51396 | 4421 ft | 248 kts | 286° |
| 2026-05-08 14:46 | 43.35062 | -3.53572 | 4109 ft | 240 kts | 286° |
| 2026-05-08 14:47 | 43.35638 | -3.55718 | 3802 ft | 239 kts | 289° |
| 2026-05-08 14:47 | 43.36213 | -3.57847 | 3466 ft | 235 kts | 287° |
| 2026-05-08 14:47 | 43.36774 | -3.59922 | 3157 ft | 227 kts | 287° |
| 2026-05-08 14:47 | 43.37320 | -3.61936 | 2857 ft | 222 kts | 285° |
| 2026-05-08 14:48 | 43.37845 | -3.63885 | 2570 ft | 211 kts | 287° |
| 2026-05-08 14:48 | 43.38340 | -3.65720 | 2315 ft | 200 kts | 287° |
| 2026-05-08 14:48 | 43.38818 | -3.67502 | 2053 ft | 197 kts | 287° |
| 2026-05-08 14:48 | 43.39277 | -3.69209 | 1798 ft | 187 kts | 286° |
| 2026-05-08 14:49 | 43.39712 | -3.70819 | 1530 ft | 172 kts | 287° |
| 2026-05-08 14:49 | 43.40098 | -3.72258 | 1327 ft | 150 kts | 288° |
| 2026-05-08 14:49 | 43.40435 | -3.73515 | 1141 ft | 134 kts | 289° |
| 2026-05-08 14:49 | 43.40750 | -3.74694 | 958 ft | 131 kts | 289° |
| 2026-05-08 14:50 | 43.41065 | -3.75867 | 836 ft | 130 kts | 292° |
| 2026-05-08 14:50 | 43.41378 | -3.77033 | 658 ft | 130 kts | 291° |
| 2026-05-08 14:50 | 43.41689 | -3.78194 | 469 ft | 129 kts | 292° |
| 2026-05-08 14:50 | 43.41995 | -3.79357 | 254 ft | 130 kts | 291° |
| 2026-05-08 14:51 | 43.42306 | -3.80508 | 71 ft | 127 kts | 290° |
| 2026-05-08 14:51 | 43.42589 | -3.81563 | 23 ft | 91 kts | 290° |
| 2026-05-08 14:51 | 43.42717 | -3.82040 | 18 ft | 32 kts | 290° |
| 2026-05-08 14:51 | 43.42743 | -3.82205 | 18 ft | 11 kts | 242° |
| 2026-05-08 14:52 | 43.42683 | -3.82250 | 20 ft | 9 kts | 200° |
| 2026-05-08 14:52 | 43.42627 | -3.82278 | 19 ft | 0 kts | 200° |
| 2026-05-08 14:52 | 43.42621 | -3.82281 | 19 ft | 3 kts | 200° |
| 2026-05-08 14:53 | 43.42582 | -3.82301 | 19 ft | 9 kts | 200° |
| 2026-05-08 14:53 | 43.42551 | -3.82317 | 19 ft | 2 kts | 200° |
| 2026-05-08 14:53 | 43.42541 | -3.82321 | 21 ft | 1 kts | 200° |
| 2026-05-08 14:53 | 43.42528 | -3.82317 | 19 ft | 3 kts | 150° |
| 2026-05-08 14:54 | 43.42524 | -3.82296 | 19 ft | 2 kts | 103° |
| 2026-05-08 14:54 | 43.42521 | -3.82281 | 19 ft | 2 kts | 111° |
| 2026-05-08 14:54 | 43.42516 | -3.82265 | 20 ft | 2 kts | 111° |
| 2026-05-08 14:54 | 43.42513 | -3.82252 | 21 ft | 1 kts | 111° |
| 2026-05-08 14:55 | 43.42513 | -3.82251 | 21 ft | 0 kts | 111° |